Time;durP1;ratioP1;P1;durP2;ratioP2;P2;SDS_P1;SDS_P2;PMS_P1;PMS_P2;Temp;Humidity;BMP_temperature;BMP_pressure;BME280_temperature;BME280_humidity;BME280_pressure;Samples;Min_cycle;Max_cycle;Signal;HPM_P1;HPM_P2
2021/09/25 00:02:09;;;;;;;0.20;0.20;;;22.00;71.20;;;;;;5123409;28;20078;-37
2021/09/25 00:04:35;;;;;;;0.70;0.40;;;22.00;71.20;;;;;;5123628;28;20081;-37
2021/09/25 00:07:02;;;;;;;0.38;0.30;;;22.00;71.00;;;;;;5123580;28;20019;-37
2021/09/25 00:09:28;;;;;;;0.40;0.30;;;22.00;71.10;;;;;;5123613;28;20046;-37
2021/09/25 00:11:54;;;;;;;0.40;0.40;;;21.90;71.90;;;;;;5105923;28;20027;-36
2021/09/25 00:14:20;;;;;;;0.50;0.40;;;22.00;71.30;;;;;;5118124;28;20046;-37
2021/09/25 00:16:46;;;;;;;0.50;0.40;;;21.90;71.30;;;;;;5106583;28;20085;-36
2021/09/25 00:19:13;;;;;;;0.63;0.40;;;21.90;71.40;;;;;;5103317;28;20032;-36
2021/09/25 00:21:39;;;;;;;0.80;0.40;;;21.90;71.40;;;;;;5106965;28;20553;-37
2021/09/25 00:24:06;;;;;;;0.95;0.40;;;21.90;72.20;;;;;;5123182;28;20020;-37
2021/09/25 00:26:32;;;;;;;0.40;0.40;;;21.90;71.40;;;;;;5123163;28;20035;-37
2021/09/25 00:28:58;;;;;;;0.65;0.47;;;21.90;71.40;;;;;;5123477;28;20039;-37
2021/09/25 00:31:24;;;;;;;0.35;0.35;;;21.90;71.20;;;;;;5123388;28;20043;-37
2021/09/25 00:33:50;;;;;;;0.47;0.45;;;21.90;71.20;;;;;;5123150;28;20031;-37
2021/09/25 00:36:16;;;;;;;0.60;0.50;;;21.90;71.20;;;;;;5123397;28;20023;-36
2021/09/25 00:38:42;;;;;;;0.40;0.30;;;21.90;70.80;;;;;;5123085;28;20024;-37
2021/09/25 00:41:09;;;;;;;0.38;0.30;;;21.90;70.80;;;;;;5110253;28;20036;-37
2021/09/25 00:43:35;;;;;;;0.40;0.30;;;21.90;70.80;;;;;;5114898;28;20024;-36
2021/09/25 00:46:01;;;;;;;0.40;0.40;;;21.90;70.60;;;;;;5105124;28;20081;-37
2021/09/25 00:48:27;;;;;;;0.57;0.30;;;21.80;70.40;;;;;;5123234;28;20034;-36
2021/09/25 00:50:53;;;;;;;0.52;0.30;;;21.90;70.30;;;;;;5123136;28;20024;-37
2021/09/25 00:53:19;;;;;;;0.60;0.40;;;21.80;70.10;;;;;;5120129;28;20027;-37
2021/09/25 00:55:46;;;;;;;0.50;0.40;;;21.80;70.00;;;;;;5127436;28;20036;-37
2021/09/25 00:58:13;;;;;;;0.50;0.43;;;21.80;69.90;;;;;;5109057;28;20031;-36
2021/09/25 01:00:39;;;;;;;1.17;0.40;;;21.80;69.80;;;;;;5108848;28;20044;-37
2021/09/25 01:03:05;;;;;;;0.55;0.40;;;21.80;69.80;;;;;;5126942;28;20054;-37
2021/09/25 01:05:32;;;;;;;0.20;0.20;;;21.80;69.60;;;;;;5127130;28;20061;-37
2021/09/25 01:07:59;;;;;;;0.73;0.40;;;21.80;70.50;;;;;;5126817;28;20047;-36
2021/09/25 01:10:25;;;;;;;0.40;0.40;;;21.70;69.70;;;;;;5108622;28;20123;-36
2021/09/25 01:12:52;;;;;;;0.68;0.43;;;21.80;69.70;;;;;;5108387;28;20117;-37
2021/09/25 01:15:19;;;;;;;0.40;0.38;;;21.70;69.60;;;;;;5127146;28;20024;-37
2021/09/25 01:17:46;;;;;;;1.23;0.30;;;21.70;69.40;;;;;;5126969;28;20754;-36
2021/09/25 01:20:12;;;;;;;1.00;0.40;;;21.70;69.40;;;;;;5126839;28;20049;-37
2021/09/25 01:22:38;;;;;;;0.87;0.30;;;21.70;69.20;;;;;;5126621;28;20030;-37
2021/09/25 01:25:06;;;;;;;0.40;0.32;;;21.70;69.30;;;;;;5126394;28;20030;-36
2021/09/25 01:27:32;;;;;;;0.50;0.38;;;21.70;69.20;;;;;;5126758;28;20027;-36
2021/09/25 01:29:58;;;;;;;1.10;0.50;;;21.70;69.20;;;;;;5126553;28;20100;-37
2021/09/25 01:32:24;;;;;;;0.60;0.40;;;21.70;69.20;;;;;;5126666;28;20032;-37
2021/09/25 01:34:50;;;;;;;0.65;0.40;;;21.70;69.20;;;;;;5108167;28;20087;-37
2021/09/25 01:37:17;;;;;;;0.30;0.30;;;21.70;69.10;;;;;;5126262;28;20035;-36
2021/09/25 01:39:43;;;;;;;0.30;0.30;;;21.60;69.10;;;;;;5126395;28;20066;-37
2021/09/25 01:42:09;;;;;;;0.40;0.30;;;21.60;69.10;;;;;;5126373;28;20039;-37
2021/09/25 01:44:35;;;;;;;0.68;0.40;;;21.60;69.10;;;;;;5126207;28;20032;-37
2021/09/25 01:47:02;;;;;;;0.43;0.40;;;21.60;69.10;;;;;;5126650;28;20035;-37
2021/09/25 01:49:28;;;;;;;0.50;0.40;;;21.60;69.00;;;;;;5126411;28;20090;-36
2021/09/25 01:51:54;;;;;;;0.30;0.30;;;21.60;69.00;;;;;;5125965;28;20544;-37
2021/09/25 01:54:20;;;;;;;0.60;0.40;;;21.60;69.00;;;;;;5125961;28;20073;-37
2021/09/25 01:56:46;;;;;;;0.43;0.40;;;21.60;69.10;;;;;;5126216;28;20190;-37
2021/09/25 01:59:13;;;;;;;0.40;0.40;;;21.50;69.00;;;;;;5126243;28;20521;-37
2021/09/25 02:01:39;;;;;;;0.85;0.40;;;21.50;69.10;;;;;;5125997;28;20050;-37
2021/09/25 02:04:05;;;;;;;0.63;0.30;;;21.50;69.00;;;;;;5106939;28;20035;-37
2021/09/25 02:06:32;;;;;;;0.85;0.50;;;21.50;69.10;;;;;;5125241;28;20895;-37
2021/09/25 02:08:58;;;;;;;0.75;0.57;;;21.50;69.10;;;;;;5115470;28;20779;-37
2021/09/25 02:11:24;;;;;;;1.60;0.40;;;21.50;69.10;;;;;;5120253;28;20053;-36
2021/09/25 02:13:51;;;;;;;0.43;0.38;;;21.50;69.10;;;;;;5125774;28;20027;-36
2021/09/25 02:16:17;;;;;;;0.80;0.30;;;21.50;69.20;;;;;;5125781;28;20055;-36
2021/09/25 02:18:43;;;;;;;0.43;0.40;;;21.50;69.10;;;;;;5125870;28;20024;-36
2021/09/25 02:21:10;;;;;;;0.50;0.50;;;21.40;69.20;;;;;;5125748;28;20843;-37
2021/09/25 02:23:36;;;;;;;0.40;0.38;;;21.40;69.20;;;;;;5104780;28;20016;-37
2021/09/25 02:26:02;;;;;;;0.60;0.43;;;21.40;69.20;;;;;;5105103;28;20042;-37
2021/09/25 02:28:28;;;;;;;0.50;0.40;;;21.40;69.30;;;;;;5105153;28;20781;-36
2021/09/25 02:30:55;;;;;;;1.10;0.50;;;21.40;69.20;;;;;;5105140;28;20028;-36
2021/09/25 02:33:22;;;;;;;0.43;0.43;;;21.30;69.20;;;;;;5105066;28;20031;-37
2021/09/25 02:35:49;;;;;;;1.73;0.50;;;21.30;69.30;;;;;;5104928;28;20035;-36
2021/09/25 02:38:16;;;;;;;0.50;0.40;;;21.30;69.30;;;;;;5104634;28;20024;-37
2021/09/25 02:40:42;;;;;;;0.90;0.47;;;21.30;69.30;;;;;;5104973;28;20047;-36
2021/09/25 02:43:09;;;;;;;0.50;0.40;;;21.30;69.40;;;;;;5125148;28;20084;-36
2021/09/25 02:45:35;;;;;;;0.70;0.50;;;21.30;69.40;;;;;;5106782;28;20036;-37
2021/09/25 02:48:01;;;;;;;0.55;0.50;;;21.30;69.40;;;;;;5106855;28;20500;-37
2021/09/25 02:50:27;;;;;;;2.20;0.50;;;21.30;69.50;;;;;;5125350;28;20051;-36
2021/09/25 02:52:54;;;;;;;2.00;0.50;;;21.20;69.40;;;;;;5110144;28;20310;-37
2021/09/25 02:55:20;;;;;;;0.50;0.50;;;21.20;69.40;;;;;;5104293;28;20118;-37
2021/09/25 02:57:46;;;;;;;0.73;0.50;;;21.20;69.50;;;;;;5095851;28;20097;-37
2021/09/25 03:00:15;;;;;;;0.57;0.40;;;21.20;69.40;;;;;;5106596;28;20047;-36
2021/09/25 03:02:41;;;;;;;1.08;0.50;;;21.20;69.60;;;;;;5124745;28;20087;-36
2021/09/25 03:05:08;;;;;;;0.98;0.55;;;21.20;69.60;;;;;;5124666;28;20028;-36
2021/09/25 03:07:34;;;;;;;1.27;0.50;;;21.20;69.60;;;;;;5124578;28;20027;-37
2021/09/25 03:10:00;;;;;;;0.60;0.50;;;21.10;69.50;;;;;;5124689;28;20023;-37
2021/09/25 03:12:29;;;;;;;0.57;0.50;;;21.10;69.60;;;;;;5124737;28;20045;-36
2021/09/25 03:14:55;;;;;;;0.52;0.50;;;21.10;69.50;;;;;;5124380;28;20031;-36
2021/09/25 03:17:21;;;;;;;0.43;0.43;;;21.10;69.60;;;;;;5124085;28;20020;-36
2021/09/25 03:19:47;;;;;;;0.82;0.50;;;21.10;69.60;;;;;;5124543;28;20057;-37
2021/09/25 03:22:17;;;;;;;0.93;0.50;;;21.00;69.60;;;;;;5124214;28;20123;-40
2021/09/25 03:24:43;;;;;;;0.70;0.50;;;21.00;69.70;;;;;;5124371;28;20039;-37
2021/09/25 03:27:10;;;;;;;0.38;0.38;;;21.00;69.70;;;;;;5124318;28;20028;-37
2021/09/25 03:29:36;;;;;;;1.05;0.50;;;21.00;69.70;;;;;;5124411;28;20091;-37
2021/09/25 03:32:03;;;;;;;0.60;0.50;;;21.00;69.70;;;;;;5124058;28;20065;-36
2021/09/25 03:34:29;;;;;;;1.13;0.40;;;21.00;69.70;;;;;;5124102;28;20055;-36
2021/09/25 03:36:55;;;;;;;0.40;0.40;;;21.00;69.80;;;;;;5117418;28;20058;-37
2021/09/25 03:39:21;;;;;;;0.63;0.50;;;21.00;69.80;;;;;;5103744;28;20036;-36
2021/09/25 03:41:48;;;;;;;0.95;0.55;;;20.90;69.80;;;;;;5121913;28;20384;-36
2021/09/25 03:44:14;;;;;;;0.93;0.70;;;20.90;69.90;;;;;;5124074;28;20055;-36
2021/09/25 03:46:40;;;;;;;0.70;0.50;;;20.90;69.90;;;;;;5123696;28;20027;-36
2021/09/25 03:49:06;;;;;;;1.42;0.60;;;20.90;69.90;;;;;;5124179;28;20020;-37
2021/09/25 03:51:32;;;;;;;0.60;0.50;;;20.90;69.90;;;;;;5123649;28;20500;-37
2021/09/25 03:53:59;;;;;;;1.30;0.50;;;20.90;69.90;;;;;;5123729;28;20036;-36
2021/09/25 03:56:25;;;;;;;0.90;0.50;;;20.90;70.00;;;;;;5123656;28;20766;-37
2021/09/25 03:58:52;;;;;;;1.00;0.60;;;20.80;70.00;;;;;;5123857;28;20035;-37
2021/09/25 04:01:18;;;;;;;0.80;0.55;;;20.80;70.10;;;;;;5123689;28;20019;-36
2021/09/25 04:03:44;;;;;;;0.50;0.50;;;20.80;70.20;;;;;;5123979;28;20412;-37
2021/09/25 04:06:11;;;;;;;0.88;0.40;;;20.80;70.10;;;;;;5123446;28;20047;-37
2021/09/25 04:08:37;;;;;;;1.83;0.47;;;20.80;70.20;;;;;;5111009;28;20032;-36
2021/09/25 04:11:03;;;;;;;0.98;0.40;;;20.80;70.20;;;;;;5097060;28;20049;-37
2021/09/25 04:13:29;;;;;;;0.90;0.50;;;20.80;70.30;;;;;;5123714;28;20453;-37
2021/09/25 04:15:55;;;;;;;0.70;0.50;;;20.70;70.20;;;;;;5123515;28;20033;-36
2021/09/25 04:18:21;;;;;;;0.90;0.50;;;20.70;70.20;;;;;;5123548;28;20031;-36
2021/09/25 04:20:48;;;;;;;0.68;0.60;;;20.70;70.30;;;;;;5123570;28;20032;-36
2021/09/25 04:23:14;;;;;;;1.02;0.50;;;20.70;70.30;;;;;;5123440;28;20020;-36
2021/09/25 04:25:40;;;;;;;0.55;0.50;;;20.70;70.40;;;;;;5123293;28;20108;-37
2021/09/25 04:28:07;;;;;;;0.90;0.60;;;20.70;70.40;;;;;;5122398;28;20023;-36
2021/09/25 04:30:39;;;;;;;0.60;0.40;;;20.70;70.40;;;;;;5123377;28;20031;-36
2021/09/25 04:33:08;;;;;;;0.63;0.50;;;20.70;70.40;;;;;;5123505;28;20020;-37
2021/09/25 04:35:35;;;;;;;0.50;0.40;;;20.70;70.40;;;;;;5123222;28;20027;-36
2021/09/25 04:38:01;;;;;;;1.40;0.50;;;20.60;70.50;;;;;;5123107;28;20508;-36
2021/09/25 04:40:29;;;;;;;1.30;0.60;;;20.60;70.40;;;;;;5123269;28;20311;-37
2021/09/25 04:42:59;;;;;;;1.02;0.52;;;20.60;70.60;;;;;;5123183;28;20052;-36
2021/09/25 04:45:26;;;;;;;0.88;0.60;;;20.60;70.60;;;;;;5123081;28;20408;-37
2021/09/25 04:47:52;;;;;;;0.77;0.55;;;20.60;71.30;;;;;;5123194;28;20023;-37
2021/09/25 04:50:18;;;;;;;0.60;0.60;;;20.60;70.70;;;;;;5123285;28;20040;-37
2021/09/25 04:52:44;;;;;;;1.40;0.60;;;20.60;70.70;;;;;;5123083;28;20047;-37
2021/09/25 04:55:13;;;;;;;1.92;0.55;;;20.50;70.70;;;;;;5123042;28;20279;-36
2021/09/25 04:57:40;;;;;;;0.40;0.40;;;20.50;70.70;;;;;;5122668;28;20049;-36
2021/09/25 05:00:07;;;;;;;0.90;0.60;;;20.50;71.50;;;;;;5122752;28;20065;-36
2021/09/25 05:02:33;;;;;;;0.93;0.50;;;20.50;70.80;;;;;;5102536;28;20047;-36
2021/09/25 05:04:59;;;;;;;2.17;0.60;;;20.50;70.90;;;;;;5102867;28;20036;-37
2021/09/25 05:07:25;;;;;;;0.50;0.50;;;20.40;70.80;;;;;;5112468;28;20028;-36
2021/09/25 05:09:51;;;;;;;0.93;0.60;;;20.40;70.80;;;;;;5122808;28;20028;-36
2021/09/25 05:12:17;;;;;;;1.38;0.60;;;20.40;70.80;;;;;;5122840;28;20020;-36
2021/09/25 05:14:44;;;;;;;1.00;0.60;;;20.40;70.80;;;;;;5123044;28;20648;-36
2021/09/25 05:17:10;;;;;;;0.52;0.52;;;20.40;70.80;;;;;;5122573;28;20065;-37
2021/09/25 05:19:36;;;;;;;0.55;0.55;;;20.40;70.90;;;;;;5123143;28;20482;-36
2021/09/25 05:22:02;;;;;;;0.68;0.63;;;20.40;70.90;;;;;;5122711;28;20049;-36
2021/09/25 05:24:28;;;;;;;0.80;0.60;;;20.40;71.00;;;;;;5122812;28;20055;-36
2021/09/25 05:26:55;;;;;;;0.50;0.47;;;20.40;70.90;;;;;;5122360;28;20031;-36
2021/09/25 05:29:23;;;;;;;0.57;0.57;;;20.30;70.90;;;;;;5122786;28;20028;-37
2021/09/25 05:31:49;;;;;;;0.60;0.47;;;20.30;71.00;;;;;;5122902;28;20036;-36
2021/09/25 05:34:16;;;;;;;1.27;0.70;;;20.30;71.10;;;;;;5122967;28;20020;-36
2021/09/25 05:36:42;;;;;;;1.42;0.68;;;20.30;71.10;;;;;;5122593;28;20057;-36
2021/09/25 05:39:08;;;;;;;0.80;0.55;;;20.30;71.20;;;;;;5123142;28;20077;-37
2021/09/25 05:41:36;;;;;;;1.00;0.73;;;20.30;71.20;;;;;;5109832;28;20035;-36
2021/09/25 05:44:02;;;;;;;0.60;0.50;;;20.30;71.20;;;;;;5105984;28;20036;-36
2021/09/25 05:46:28;;;;;;;1.27;0.57;;;20.30;71.30;;;;;;5105636;28;20031;-37
2021/09/25 05:48:54;;;;;;;2.55;0.60;;;20.30;71.20;;;;;;5105883;28;20110;-36
2021/09/25 05:51:20;;;;;;;1.15;0.60;;;20.20;71.20;;;;;;5105570;28;20040;-36
2021/09/25 05:53:47;;;;;;;0.75;0.60;;;20.20;71.20;;;;;;5105703;28;20028;-36
2021/09/25 05:56:13;;;;;;;0.80;0.50;;;20.20;71.30;;;;;;5105644;28;20024;-36
2021/09/25 05:58:39;;;;;;;1.33;0.60;;;20.20;71.30;;;;;;5105450;28;20728;-36
2021/09/25 06:01:05;;;;;;;0.70;0.47;;;20.20;71.40;;;;;;5106386;28;20032;-37
2021/09/25 06:03:32;;;;;;;1.20;0.70;;;20.10;71.30;;;;;;5105686;28;20035;-36
2021/09/25 06:05:58;;;;;;;0.63;0.50;;;20.10;71.30;;;;;;5105443;28;20025;-37
2021/09/25 06:08:24;;;;;;;0.85;0.60;;;20.10;71.40;;;;;;5123424;28;20027;-36
2021/09/25 06:10:50;;;;;;;1.05;0.60;;;20.10;71.40;;;;;;5125785;28;20027;-36
2021/09/25 06:13:16;;;;;;;0.82;0.57;;;20.10;71.40;;;;;;5125788;28;20049;-37
2021/09/25 06:15:44;;;;;;;1.10;0.60;;;20.10;71.40;;;;;;5125720;28;20115;-37
2021/09/25 06:18:10;;;;;;;0.70;0.70;;;20.10;71.50;;;;;;5109770;28;20039;-36
2021/09/25 06:20:37;;;;;;;0.50;0.50;;;20.10;71.50;;;;;;5105293;28;20036;-36
2021/09/25 06:23:03;;;;;;;0.70;0.50;;;20.00;71.50;;;;;;5104962;28;20070;-36
2021/09/25 06:25:30;;;;;;;1.33;0.70;;;20.00;71.50;;;;;;5105137;28;20808;-36
2021/09/25 06:27:56;;;;;;;0.68;0.60;;;20.00;71.50;;;;;;5104828;28;20033;-36
2021/09/25 06:30:22;;;;;;;0.70;0.60;;;20.00;71.60;;;;;;5104951;28;20045;-37
2021/09/25 06:32:48;;;;;;;0.73;0.60;;;20.00;71.60;;;;;;5104689;28;20064;-36
2021/09/25 06:35:16;;;;;;;1.07;0.53;;;20.00;71.70;;;;;;5107664;28;20030;-36
2021/09/25 06:37:42;;;;;;;0.98;0.77;;;20.00;71.60;;;;;;5116990;28;20268;-36
2021/09/25 06:40:10;;;;;;;0.90;0.70;;;20.00;71.70;;;;;;5102623;28;20039;-37
2021/09/25 06:42:36;;;;;;;;;;;20.00;71.70;;;;;;5105139;28;20035;-36
2021/09/25 06:45:03;;;;;;;0.55;0.50;;;19.90;71.70;;;;;;5104645;28;19953;-36
2021/09/25 06:47:30;;;;;;;1.55;1.00;;;19.90;71.60;;;;;;5104632;28;20031;-36
2021/09/25 06:49:56;;;;;;;2.00;0.80;;;19.90;71.80;;;;;;5104514;28;20095;-36
2021/09/25 06:52:23;;;;;;;1.67;0.60;;;19.90;71.80;;;;;;5103448;28;20071;-36
2021/09/25 06:54:50;;;;;;;1.20;0.75;;;19.90;71.80;;;;;;5104394;28;20093;-36
2021/09/25 06:57:16;;;;;;;0.80;0.70;;;19.90;71.90;;;;;;5104404;28;20032;-36
2021/09/25 06:59:42;;;;;;;0.80;0.77;;;19.90;71.90;;;;;;5103894;28;20307;-37
2021/09/25 07:02:08;;;;;;;1.25;0.60;;;19.90;71.90;;;;;;5104352;28;20039;-37
2021/09/25 07:04:36;;;;;;;0.88;0.68;;;19.90;71.90;;;;;;5104319;28;20091;-36
2021/09/25 07:07:02;;;;;;;;;;;19.80;71.90;;;;;;5113211;28;20035;-36
2021/09/25 07:09:28;;;;;;;0.85;0.65;;;19.80;72.00;;;;;;5124197;28;20029;-37
2021/09/25 07:11:54;;;;;;;2.28;0.70;;;19.80;72.00;;;;;;5124526;28;20027;-36
2021/09/25 07:14:20;;;;;;;2.20;0.77;;;19.80;72.00;;;;;;5124459;28;20087;-36
2021/09/25 07:16:46;;;;;;;2.05;0.73;;;19.80;72.00;;;;;;5124530;28;20024;-36
2021/09/25 07:19:13;;;;;;;1.40;0.70;;;19.80;72.10;;;;;;5124145;28;20034;-36
2021/09/25 07:21:39;;;;;;;0.93;0.70;;;19.70;72.00;;;;;;5124283;28;20052;-37
2021/09/25 07:24:05;;;;;;;1.55;0.88;;;19.80;72.10;;;;;;5124183;28;20034;-36
2021/09/25 07:26:31;;;;;;;1.33;0.77;;;19.80;72.10;;;;;;5124179;28;20043;-36
2021/09/25 07:28:57;;;;;;;1.00;0.90;;;19.70;72.00;;;;;;5123937;28;20024;-36
2021/09/25 07:31:23;;;;;;;0.90;0.57;;;19.70;72.00;;;;;;5123584;28;20034;-36
2021/09/25 07:33:50;;;;;;;0.85;0.65;;;19.70;72.10;;;;;;5105618;28;20016;-36
2021/09/25 07:36:16;;;;;;;1.23;0.90;;;19.70;72.20;;;;;;5124110;28;20061;-36
2021/09/25 07:38:42;;;;;;;1.35;0.60;;;19.70;72.20;;;;;;5123707;28;20684;-36
2021/09/25 07:41:09;;;;;;;1.30;0.80;;;19.70;72.20;;;;;;5123996;28;20065;-36
2021/09/25 07:43:35;;;;;;;1.15;0.80;;;19.70;72.30;;;;;;5123914;28;20023;-37
2021/09/25 07:46:01;;;;;;;0.75;0.70;;;19.70;72.30;;;;;;5123820;28;20035;-37
2021/09/25 07:48:27;;;;;;;0.93;0.82;;;19.60;72.20;;;;;;5123344;28;20022;-37
2021/09/25 07:50:53;;;;;;;0.88;0.70;;;19.60;72.30;;;;;;5123642;28;20027;-37
2021/09/25 07:53:20;;;;;;;1.48;0.77;;;19.60;72.30;;;;;;5123798;28;20036;-37
2021/09/25 07:55:46;;;;;;;1.30;0.82;;;19.60;72.30;;;;;;5123822;28;20162;-37
2021/09/25 07:58:12;;;;;;;1.00;0.80;;;19.60;72.40;;;;;;5123229;28;20024;-37
2021/09/25 08:00:39;;;;;;;1.30;0.70;;;19.60;72.40;;;;;;5123747;28;20145;-37
2021/09/25 08:03:05;;;;;;;0.85;0.63;;;19.60;72.50;;;;;;5123499;28;20028;-37
2021/09/25 08:05:31;;;;;;;2.10;0.65;;;19.60;72.40;;;;;;5123572;28;20063;-37
2021/09/25 08:07:57;;;;;;;1.00;0.75;;;19.50;72.40;;;;;;5123464;28;20023;-37
2021/09/25 08:10:24;;;;;;;1.27;1.00;;;19.50;72.40;;;;;;5123319;28;20122;-37
2021/09/25 08:12:50;;;;;;;1.60;0.85;;;19.50;72.40;;;;;;5108019;28;20055;-37
2021/09/25 08:15:16;;;;;;;2.70;0.88;;;19.50;72.50;;;;;;5103121;28;20032;-37
2021/09/25 08:17:43;;;;;;;1.23;0.75;;;19.50;72.50;;;;;;5102667;28;20049;-37
2021/09/25 08:20:10;;;;;;;1.63;0.90;;;19.50;72.50;;;;;;5102659;28;20061;-37
2021/09/25 08:22:36;;;;;;;;;;;19.50;72.50;;;;;;5103350;28;20088;-37
2021/09/25 08:25:03;;;;;;;1.00;0.70;;;19.50;72.50;;;;;;5103132;28;19908;-37
2021/09/25 08:27:29;;;;;;;0.98;0.80;;;19.50;72.60;;;;;;5084604;28;20073;-37
2021/09/25 08:29:55;;;;;;;2.43;0.90;;;19.50;72.70;;;;;;5102759;28;20115;-37
2021/09/25 08:32:22;;;;;;;1.10;1.00;;;19.40;72.60;;;;;;5111101;28;20264;-37
2021/09/25 08:34:48;;;;;;;1.88;0.88;;;19.40;72.70;;;;;;5123174;28;20028;-37
2021/09/25 08:37:15;;;;;;;1.77;0.77;;;19.40;72.70;;;;;;5123450;28;20027;-37
2021/09/25 08:39:42;;;;;;;1.40;0.98;;;19.40;72.70;;;;;;5122280;28;20036;-37
2021/09/25 08:42:12;;;;;;;1.10;0.88;;;19.40;72.70;;;;;;5102927;28;20083;-37
2021/09/25 08:44:38;;;;;;;1.10;0.93;;;19.40;72.80;;;;;;5122250;28;20050;-37
2021/09/25 08:47:06;;;;;;;2.40;0.90;;;19.40;72.80;;;;;;5122786;28;20061;-37
2021/09/25 08:49:32;;;;;;;1.88;0.82;;;19.30;72.80;;;;;;5122910;28;20272;-37
2021/09/25 08:51:58;;;;;;;1.17;0.90;;;19.40;72.80;;;;;;5104593;28;20393;-37
2021/09/25 08:54:24;;;;;;;1.20;0.88;;;19.30;72.80;;;;;;5087794;28;20123;-37
2021/09/25 08:56:50;;;;;;;1.98;0.98;;;19.30;72.80;;;;;;5122982;28;20023;-37
2021/09/25 08:59:16;;;;;;;1.77;0.70;;;19.30;72.80;;;;;;5122624;28;20138;-37
2021/09/25 09:01:43;;;;;;;2.10;1.00;;;19.30;72.90;;;;;;5104538;28;20468;-37
2021/09/25 09:04:09;;;;;;;2.53;0.90;;;19.30;72.90;;;;;;5122926;28;20108;-37
2021/09/25 09:06:36;;;;;;;2.55;1.15;;;19.30;72.90;;;;;;5122979;28;20500;-37
2021/09/25 09:09:09;;;;;;;1.58;0.90;;;19.30;72.90;;;;;;5122844;28;20030;-37
2021/09/25 09:11:46;;;;;;;1.83;1.00;;;19.30;73.00;;;;;;5122365;28;20084;-37
2021/09/25 09:14:16;;;;;;;2.20;0.98;;;19.30;73.00;;;;;;5123311;28;20560;-37
2021/09/25 09:16:54;;;;;;;2.03;1.10;;;19.30;73.00;;;;;;5126792;28;20080;-37
2021/09/25 09:19:20;;;;;;;2.58;0.98;;;19.20;73.00;;;;;;5108123;28;20035;-37
2021/09/25 09:21:46;;;;;;;2.13;1.25;;;19.20;73.20;;;;;;5126489;28;20036;-37
2021/09/25 09:24:14;;;;;;;1.10;0.90;;;19.20;73.10;;;;;;5091181;28;20032;-37
2021/09/25 09:26:42;;;;;;;1.38;0.90;;;19.20;73.10;;;;;;5126467;28;20034;-37
2021/09/25 09:29:09;;;;;;;1.27;1.00;;;19.20;73.00;;;;;;5108406;28;20028;-37
2021/09/25 09:31:35;;;;;;;1.48;0.90;;;19.20;73.20;;;;;;5126485;28;20085;-37
2021/09/25 09:34:04;;;;;;;3.38;1.00;;;19.20;73.10;;;;;;5126245;28;20059;-37
2021/09/25 09:36:37;;;;;;;1.85;0.93;;;19.10;73.10;;;;;;5126234;28;20038;-37
2021/09/25 09:39:15;;;;;;;1.45;0.75;;;19.10;73.00;;;;;;5126370;28;20036;-37
2021/09/25 09:41:46;;;;;;;2.08;1.10;;;19.10;73.10;;;;;;5126145;28;20039;-37
2021/09/25 09:44:20;;;;;;;2.72;1.30;;;19.10;73.20;;;;;;5126117;28;20031;-37
2021/09/25 09:46:51;;;;;;;1.48;0.98;;;19.10;73.20;;;;;;5126046;28;20031;-37
2021/09/25 09:49:28;;;;;;;1.23;0.95;;;19.10;73.20;;;;;;5125936;28;20031;-37
2021/09/25 09:51:58;;;;;;;1.40;1.10;;;19.10;73.30;;;;;;5125686;28;20055;-37
2021/09/25 09:54:29;;;;;;;2.08;1.17;;;19.10;73.30;;;;;;5107419;28;20024;-37
2021/09/25 09:57:00;;;;;;;1.90;1.10;;;19.10;73.30;;;;;;5126104;28;20023;-37
2021/09/25 09:59:26;;;;;;;1.70;1.17;;;19.00;73.30;;;;;;5125696;28;20027;-37
2021/09/25 10:01:52;;;;;;;1.50;1.20;;;19.00;73.30;;;;;;5125628;28;20031;-37
2021/09/25 10:04:19;;;;;;;1.30;1.10;;;19.00;73.40;;;;;;5125753;28;20039;-37
2021/09/25 10:06:45;;;;;;;2.15;1.08;;;19.00;73.40;;;;;;5107449;28;20036;-37
2021/09/25 10:09:20;;;;;;;1.33;1.00;;;19.00;73.40;;;;;;5125709;28;20057;-37
2021/09/25 10:11:48;;;;;;;1.15;0.90;;;19.00;73.40;;;;;;5125359;28;20335;-37
2021/09/25 10:14:22;;;;;;;2.58;1.13;;;19.00;73.40;;;;;;5124268;28;20034;-37
2021/09/25 10:16:49;;;;;;;1.27;1.00;;;19.00;73.50;;;;;;5125521;28;20120;-37
2021/09/25 10:19:19;;;;;;;1.77;1.20;;;19.00;73.40;;;;;;5125219;28;20046;-37
2021/09/25 10:21:47;;;;;;;1.38;1.00;;;19.00;73.40;;;;;;5125266;28;20030;-37
2021/09/25 10:24:58;;;;;;;4.00;1.25;;;19.00;73.50;;;;;;5125365;28;20051;-37
2021/09/25 10:27:28;;;;;;;2.03;1.17;;;18.90;73.40;;;;;;5021114;28;20034;-37
2021/09/25 10:29:54;;;;;;;1.42;1.30;;;18.90;73.50;;;;;;5022092;28;20033;-38
2021/09/25 10:32:24;;;;;;;5.10;1.45;;;18.90;73.40;;;;;;5021719;28;20022;-37
2021/09/25 10:35:13;;;;;;;1.77;1.15;;;18.90;73.60;;;;;;5021988;28;20064;-37
2021/09/25 10:37:52;;;;;;;2.00;1.13;;;18.90;73.60;;;;;;5021987;28;20071;-37
2021/09/25 10:40:20;;;;;;;2.15;1.25;;;18.90;73.60;;;;;;5021933;28;20063;-37
2021/09/25 10:42:52;;;;;;;1.88;1.33;;;18.90;73.60;;;;;;5021398;28;20046;-37
2021/09/25 10:45:23;;;;;;;2.45;1.33;;;18.80;73.60;;;;;;5017694;28;20034;-37
2021/09/25 10:48:05;;;;;;;2.45;1.15;;;18.80;73.70;;;;;;5002113;28;20030;-37
2021/09/25 10:50:32;;;;;;;2.63;1.10;;;18.80;73.60;;;;;;5002048;28;20057;-37
2021/09/25 10:53:28;;;;;;;1.60;1.00;;;18.80;73.60;;;;;;4985656;28;20065;-37
2021/09/25 10:55:57;;;;;;;2.03;1.52;;;18.80;73.70;;;;;;5007463;28;20038;-37
2021/09/25 10:58:27;;;;;;;1.70;1.15;;;18.80;73.70;;;;;;5021304;28;20060;-37
2021/09/25 11:01:12;;;;;;;1.35;1.25;;;18.80;73.70;;;;;;5021327;28;20038;-37
2021/09/25 11:03:47;;;;;;;1.52;1.20;;;18.80;73.70;;;;;;5075955;28;20355;-37
2021/09/25 11:06:13;;;;;;;1.90;1.20;;;18.80;73.70;;;;;;5083721;28;20055;-37
2021/09/25 11:09:01;;;;;;;1.25;0.98;;;18.70;73.80;;;;;;5092510;28;20031;-37
2021/09/25 11:11:45;;;;;;;1.30;1.02;;;18.70;73.80;;;;;;5103685;28;20012;-37
2021/09/25 11:14:15;;;;;;;1.70;1.45;;;18.70;73.70;;;;;;5103654;28;20032;-37
2021/09/25 11:16:42;;;;;;;2.10;1.30;;;18.70;73.80;;;;;;5103901;28;20024;-37
2021/09/25 11:19:32;;;;;;;3.67;1.13;;;18.70;73.80;;;;;;5103722;28;20155;-37
2021/09/25 11:22:12;;;;;;;2.28;1.48;;;18.70;73.80;;;;;;5097718;28;20036;-37
2021/09/25 11:24:44;;;;;;;1.73;1.10;;;18.70;73.80;;;;;;5103592;28;20028;-37
2021/09/25 11:27:19;;;;;;;2.40;1.25;;;18.70;73.80;;;;;;5103451;28;20527;-37
2021/09/25 11:30:11;;;;;;;1.25;1.08;;;18.70;73.90;;;;;;5103628;28;20028;-37
2021/09/25 11:32:46;;;;;;;2.00;1.17;;;18.70;74.00;;;;;;5103141;28;20027;-37
2021/09/25 11:35:25;;;;;;;2.22;1.45;;;18.70;74.00;;;;;;5103463;28;20028;-37
2021/09/25 11:38:03;;;;;;;2.67;1.20;;;18.60;73.90;;;;;;5103037;28;20020;-37
2021/09/25 11:40:30;;;;;;;1.73;1.30;;;18.60;74.00;;;;;;5103078;28;20051;-37
2021/09/25 11:43:06;;;;;;;1.55;1.40;;;18.60;74.00;;;;;;5103015;28;20031;-37
2021/09/25 11:45:34;;;;;;;2.10;1.42;;;18.60;74.00;;;;;;5097086;28;20033;-37
2021/09/25 11:48:01;;;;;;;1.50;1.10;;;18.60;74.00;;;;;;5098568;28;20031;-38
2021/09/25 11:50:28;;;;;;;1.70;1.30;;;18.60;74.00;;;;;;5103308;28;20082;-37
2021/09/25 11:52:57;;;;;;;1.33;1.10;;;18.60;73.90;;;;;;5105026;28;20051;-36
2021/09/25 11:55:25;;;;;;;2.70;1.23;;;18.60;74.00;;;;;;5123564;28;20575;-37
2021/09/25 11:57:53;;;;;;;2.05;1.50;;;18.60;74.10;;;;;;5123379;28;20027;-37
2021/09/25 12:00:36;;;;;;;4.32;1.70;;;18.60;74.10;;;;;;5123616;28;20039;-36
2021/09/25 12:03:06;;;;;;;2.30;1.48;;;18.60;74.20;;;;;;5123003;28;20035;-36
2021/09/25 12:05:46;;;;;;;2.42;1.52;;;18.50;74.10;;;;;;5123541;28;20023;-36
2021/09/25 12:08:21;;;;;;;3.33;1.70;;;18.50;74.70;;;;;;5107329;28;20058;-36
2021/09/25 12:10:53;;;;;;;2.60;1.55;;;18.50;74.10;;;;;;5102999;28;20384;-36
2021/09/25 12:13:21;;;;;;;2.20;1.40;;;18.50;74.20;;;;;;5102772;28;20028;-37
2021/09/25 12:15:48;;;;;;;1.65;1.30;;;18.50;74.10;;;;;;5102908;28;20028;-37
2021/09/25 12:18:24;;;;;;;1.80;1.30;;;18.50;74.10;;;;;;5102661;28;20032;-36
2021/09/25 12:20:55;;;;;;;2.58;1.40;;;18.50;74.20;;;;;;5102702;28;20058;-37
2021/09/25 12:23:44;;;;;;;2.60;1.65;;;18.50;74.10;;;;;;5102630;28;20043;-36
2021/09/25 12:26:20;;;;;;;2.38;1.42;;;18.40;74.10;;;;;;5102702;28;20032;-36
2021/09/25 12:28:47;;;;;;;2.00;1.40;;;18.40;74.10;;;;;;5115647;28;20106;-36
2021/09/25 12:31:18;;;;;;;2.17;1.50;;;18.50;74.20;;;;;;5123104;28;20042;-38
2021/09/25 12:33:54;;;;;;;1.98;1.30;;;18.40;74.10;;;;;;5092504;28;20092;-36
2021/09/25 12:36:42;;;;;;;3.00;1.33;;;18.50;74.20;;;;;;5102681;28;20091;-37
2021/09/25 12:39:09;;;;;;;2.75;1.40;;;18.40;74.20;;;;;;5101998;28;20033;-37
2021/09/25 12:41:37;;;;;;;2.13;1.25;;;18.40;74.30;;;;;;5102523;28;20032;-36
2021/09/25 12:44:05;;;;;;;3.22;1.52;;;18.40;74.30;;;;;;5105033;28;20048;-37
2021/09/25 12:46:36;;;;;;;1.73;1.33;;;18.40;74.30;;;;;;5102832;28;20036;-37
2021/09/25 12:49:14;;;;;;;1.40;1.30;;;18.40;74.30;;;;;;5103040;28;20032;-36
2021/09/25 12:52:01;;;;;;;2.15;1.40;;;18.40;74.30;;;;;;5106498;28;20110;-36
2021/09/25 12:54:32;;;;;;;2.08;1.38;;;18.40;74.30;;;;;;5106448;28;20031;-36